sensor_id;sensor_type;location;lat;lon;timestamp;temperature;humidity
76751;SHT31;65216;51.090;-115.352;2023-08-01T00:00:16;23.81;37.01
76751;SHT31;65216;51.090;-115.352;2023-08-01T00:02:45;23.82;37.00
76751;SHT31;65216;51.090;-115.352;2023-08-01T00:05:15;23.82;36.91
76751;SHT31;65216;51.090;-115.352;2023-08-01T00:07:43;23.83;36.90
76751;SHT31;65216;51.090;-115.352;2023-08-01T00:10:10;23.82;36.97
76751;SHT31;65216;51.090;-115.352;2023-08-01T00:12:37;23.83;36.96
76751;SHT31;65216;51.090;-115.352;2023-08-01T00:15:04;23.83;36.95
76751;SHT31;65216;51.090;-115.352;2023-08-01T00:17:32;23.83;36.91
76751;SHT31;65216;51.090;-115.352;2023-08-01T00:20:01;23.85;36.91
76751;SHT31;65216;51.090;-115.352;2023-08-01T00:22:31;23.85;36.85
76751;SHT31;65216;51.090;-115.352;2023-08-01T00:25:01;23.86;36.88
76751;SHT31;65216;51.090;-115.352;2023-08-01T00:27:28;23.88;36.93
76751;SHT31;65216;51.090;-115.352;2023-08-01T00:29:58;23.88;36.93
76751;SHT31;65216;51.090;-115.352;2023-08-01T00:32:34;23.90;36.87
76751;SHT31;65216;51.090;-115.352;2023-08-01T00:35:03;23.90;36.80
76751;SHT31;65216;51.090;-115.352;2023-08-01T00:37:30;23.91;36.79
76751;SHT31;65216;51.090;-115.352;2023-08-01T00:39:57;23.91;36.67
76751;SHT31;65216;51.090;-115.352;2023-08-01T00:42:25;23.92;36.70
76751;SHT31;65216;51.090;-115.352;2023-08-01T00:44:55;23.92;36.65
76751;SHT31;65216;51.090;-115.352;2023-08-01T00:47:22;23.91;36.60
76751;SHT31;65216;51.090;-115.352;2023-08-01T00:49:49;23.90;36.54
76751;SHT31;65216;51.090;-115.352;2023-08-01T00:52:17;23.89;36.47
76751;SHT31;65216;51.090;-115.352;2023-08-01T00:54:44;23.89;36.64
76751;SHT31;65216;51.090;-115.352;2023-08-01T00:57:11;23.90;36.60
76751;SHT31;65216;51.090;-115.352;2023-08-01T00:59:41;23.90;36.58
76751;SHT31;65216;51.090;-115.352;2023-08-01T01:02:12;23.91;36.48
76751;SHT31;65216;51.090;-115.352;2023-08-01T01:04:39;23.91;36.49
76751;SHT31;65216;51.090;-115.352;2023-08-01T01:07:06;23.91;36.38
76751;SHT31;65216;51.090;-115.352;2023-08-01T01:09:34;23.92;36.35
76751;SHT31;65216;51.090;-115.352;2023-08-01T01:12:02;23.92;36.35
76751;SHT31;65216;51.090;-115.352;2023-08-01T01:14:32;23.91;36.37
76751;SHT31;65216;51.090;-115.352;2023-08-01T01:17:03;23.92;36.30
76751;SHT31;65216;51.090;-115.352;2023-08-01T01:19:30;23.92;36.28
76751;SHT31;65216;51.090;-115.352;2023-08-01T01:21:57;23.91;36.26
76751;SHT31;65216;51.090;-115.352;2023-08-01T01:24:29;23.91;36.24
76751;SHT31;65216;51.090;-115.352;2023-08-01T01:26:57;23.92;36.26
76751;SHT31;65216;51.090;-115.352;2023-08-01T01:29:25;23.91;36.23
76751;SHT31;65216;51.090;-115.352;2023-08-01T01:31:54;23.90;36.38
76751;SHT31;65216;51.090;-115.352;2023-08-01T01:34:23;23.89;36.27
76751;SHT31;65216;51.090;-115.352;2023-08-01T01:36:51;23.89;36.15
76751;SHT31;65216;51.090;-115.352;2023-08-01T01:39:18;23.89;36.23
76751;SHT31;65216;51.090;-115.352;2023-08-01T01:41:46;23.88;36.28
76751;SHT31;65216;51.090;-115.352;2023-08-01T01:44:14;23.89;36.20
76751;SHT31;65216;51.090;-115.352;2023-08-01T01:46:43;23.88;36.14
76751;SHT31;65216;51.090;-115.352;2023-08-01T01:49:11;23.86;36.10
76751;SHT31;65216;51.090;-115.352;2023-08-01T01:51:41;23.86;36.11
76751;SHT31;65216;51.090;-115.352;2023-08-01T01:54:09;23.85;36.06
76751;SHT31;65216;51.090;-115.352;2023-08-01T01:56:36;23.85;36.07
76751;SHT31;65216;51.090;-115.352;2023-08-01T01:59:03;23.84;36.10
76751;SHT31;65216;51.090;-115.352;2023-08-01T02:01:30;23.83;36.15
76751;SHT31;65216;51.090;-115.352;2023-08-01T02:03:57;23.82;36.04
76751;SHT31;65216;51.090;-115.352;2023-08-01T02:06:23;23.81;36.13
76751;SHT31;65216;51.090;-115.352;2023-08-01T02:08:50;23.80;36.23
76751;SHT31;65216;51.090;-115.352;2023-08-01T02:11:17;23.78;36.37
76751;SHT31;65216;51.090;-115.352;2023-08-01T02:13:46;23.78;36.28
76751;SHT31;65216;51.090;-115.352;2023-08-01T02:16:16;23.76;36.21
76751;SHT31;65216;51.090;-115.352;2023-08-01T02:18:43;23.74;36.22
76751;SHT31;65216;51.090;-115.352;2023-08-01T02:21:12;23.71;36.42
76751;SHT31;65216;51.090;-115.352;2023-08-01T02:23:39;23.70;36.50
76751;SHT31;65216;51.090;-115.352;2023-08-01T02:26:06;23.69;36.57
76751;SHT31;65216;51.090;-115.352;2023-08-01T02:28:33;23.67;36.48
76751;SHT31;65216;51.090;-115.352;2023-08-01T02:31:01;23.64;36.60
76751;SHT31;65216;51.090;-115.352;2023-08-01T02:33:29;23.61;36.77
76751;SHT31;65216;51.090;-115.352;2023-08-01T02:35:58;23.60;36.90
76751;SHT31;65216;51.090;-115.352;2023-08-01T02:38:25;23.58;36.96
76751;SHT31;65216;51.090;-115.352;2023-08-01T02:40:52;23.55;36.69
76751;SHT31;65216;51.090;-115.352;2023-08-01T02:43:19;23.51;36.39
76751;SHT31;65216;51.090;-115.352;2023-08-01T02:45:49;23.46;36.38
76751;SHT31;65216;51.090;-115.352;2023-08-01T02:48:16;23.44;36.52
76751;SHT31;65216;51.090;-115.352;2023-08-01T02:50:48;23.44;36.46
76751;SHT31;65216;51.090;-115.352;2023-08-01T02:53:39;23.42;36.26
76751;SHT31;65216;51.090;-115.352;2023-08-01T02:56:09;23.39;36.17
76751;SHT31;65216;51.090;-115.352;2023-08-01T02:58:37;23.37;36.29
76751;SHT31;65216;51.090;-115.352;2023-08-01T03:01:10;23.36;36.25
76751;SHT31;65216;51.090;-115.352;2023-08-01T03:03:41;23.34;36.26
76751;SHT31;65216;51.090;-115.352;2023-08-01T03:06:12;23.33;36.23
76751;SHT31;65216;51.090;-115.352;2023-08-01T03:08:39;23.30;36.21
76751;SHT31;65216;51.090;-115.352;2023-08-01T03:11:06;23.28;36.30
76751;SHT31;65216;51.090;-115.352;2023-08-01T03:13:33;23.25;36.30
76751;SHT31;65216;51.090;-115.352;2023-08-01T03:16:00;23.24;36.38
76751;SHT31;65216;51.090;-115.352;2023-08-01T03:18:29;23.22;36.54
76751;SHT31;65216;51.090;-115.352;2023-08-01T03:20:56;23.20;36.60
76751;SHT31;65216;51.090;-115.352;2023-08-01T03:23:23;23.18;36.60
76751;SHT31;65216;51.090;-115.352;2023-08-01T03:25:50;23.14;36.61
76751;SHT31;65216;51.090;-115.352;2023-08-01T03:28:17;23.12;36.68
76751;SHT31;65216;51.090;-115.352;2023-08-01T03:30:44;23.11;36.74
76751;SHT31;65216;51.090;-115.352;2023-08-01T03:33:15;23.09;36.81
76751;SHT31;65216;51.090;-115.352;2023-08-01T03:35:42;23.07;36.72
76751;SHT31;65216;51.090;-115.352;2023-08-01T03:38:09;23.03;36.79
76751;SHT31;65216;51.090;-115.352;2023-08-01T03:40:36;23.01;36.89
76751;SHT31;65216;51.090;-115.352;2023-08-01T03:43:03;22.99;36.94
76751;SHT31;65216;51.090;-115.352;2023-08-01T03:45:31;23.00;37.00
76751;SHT31;65216;51.090;-115.352;2023-08-01T03:47:59;22.98;37.04
76751;SHT31;65216;51.090;-115.352;2023-08-01T03:50:26;22.94;37.09
76751;SHT31;65216;51.090;-115.352;2023-08-01T03:52:53;22.91;37.13
76751;SHT31;65216;51.090;-115.352;2023-08-01T03:55:23;22.90;37.14
76751;SHT31;65216;51.090;-115.352;2023-08-01T03:57:49;22.90;37.17
76751;SHT31;65216;51.090;-115.352;2023-08-01T04:00:20;22.89;36.99
76751;SHT31;65216;51.090;-115.352;2023-08-01T04:02:47;22.87;36.64
76751;SHT31;65216;51.090;-115.352;2023-08-01T04:05:14;22.83;36.25
76751;SHT31;65216;51.090;-115.352;2023-08-01T04:07:41;22.82;35.86
76751;SHT31;65216;51.090;-115.352;2023-08-01T04:10:08;22.80;35.61
76751;SHT31;65216;51.090;-115.352;2023-08-01T04:12:36;22.77;35.41
76751;SHT31;65216;51.090;-115.352;2023-08-01T04:15:08;22.75;35.31
76751;SHT31;65216;51.090;-115.352;2023-08-01T04:17:35;22.71;35.10
76751;SHT31;65216;51.090;-115.352;2023-08-01T04:20:02;22.68;34.90
76751;SHT31;65216;51.090;-115.352;2023-08-01T04:22:33;22.66;34.75
76751;SHT31;65216;51.090;-115.352;2023-08-01T04:25:00;22.64;34.53
76751;SHT31;65216;51.090;-115.352;2023-08-01T04:27:28;22.63;34.37
76751;SHT31;65216;51.090;-115.352;2023-08-01T04:29:55;22.62;34.26
76751;SHT31;65216;51.090;-115.352;2023-08-01T04:32:25;22.60;34.15
76751;SHT31;65216;51.090;-115.352;2023-08-01T04:34:52;22.59;34.08
76751;SHT31;65216;51.090;-115.352;2023-08-01T04:37:18;22.60;33.96
76751;SHT31;65216;51.090;-115.352;2023-08-01T04:39:48;22.58;33.89
76751;SHT31;65216;51.090;-115.352;2023-08-01T04:42:15;22.58;33.81
76751;SHT31;65216;51.090;-115.352;2023-08-01T04:44:42;22.57;33.71
76751;SHT31;65216;51.090;-115.352;2023-08-01T04:47:09;22.55;33.73
76751;SHT31;65216;51.090;-115.352;2023-08-01T04:49:36;22.55;33.72
76751;SHT31;65216;51.090;-115.352;2023-08-01T04:52:06;22.53;33.76
76751;SHT31;65216;51.090;-115.352;2023-08-01T04:54:33;22.52;33.67
76751;SHT31;65216;51.090;-115.352;2023-08-01T04:57:01;22.51;33.60
76751;SHT31;65216;51.090;-115.352;2023-08-01T04:59:28;22.50;33.59
76751;SHT31;65216;51.090;-115.352;2023-08-01T05:01:55;22.50;33.68
76751;SHT31;65216;51.090;-115.352;2023-08-01T05:04:24;22.49;33.75
76751;SHT31;65216;51.090;-115.352;2023-08-01T05:06:51;22.49;33.94
76751;SHT31;65216;51.090;-115.352;2023-08-01T05:09:18;22.47;34.11
76751;SHT31;65216;51.090;-115.352;2023-08-01T05:11:45;22.46;34.11
76751;SHT31;65216;51.090;-115.352;2023-08-01T05:14:12;22.46;34.02
76751;SHT31;65216;51.090;-115.352;2023-08-01T05:16:42;22.45;34.12
76751;SHT31;65216;51.090;-115.352;2023-08-01T05:19:08;22.44;34.32
76751;SHT31;65216;51.090;-115.352;2023-08-01T05:21:35;22.43;34.30
76751;SHT31;65216;51.090;-115.352;2023-08-01T05:24:05;22.42;34.18
76751;SHT31;65216;51.090;-115.352;2023-08-01T05:26:32;22.41;34.20
76751;SHT31;65216;51.090;-115.352;2023-08-01T05:28:59;22.40;34.12
76751;SHT31;65216;51.090;-115.352;2023-08-01T05:31:26;22.38;34.31
76751;SHT31;65216;51.090;-115.352;2023-08-01T05:33:53;22.38;34.39
76751;SHT31;65216;51.090;-115.352;2023-08-01T05:36:20;22.37;34.55
76751;SHT31;65216;51.090;-115.352;2023-08-01T05:38:47;22.36;34.37
76751;SHT31;65216;51.090;-115.352;2023-08-01T05:41:13;22.35;34.25
76751;SHT31;65216;51.090;-115.352;2023-08-01T05:43:40;22.34;34.15
76751;SHT31;65216;51.090;-115.352;2023-08-01T05:46:10;22.33;34.09
76751;SHT31;65216;51.090;-115.352;2023-08-01T05:48:37;22.32;34.04
76751;SHT31;65216;51.090;-115.352;2023-08-01T05:51:03;22.31;33.92
76751;SHT31;65216;51.090;-115.352;2023-08-01T05:53:33;22.31;33.90
76751;SHT31;65216;51.090;-115.352;2023-08-01T05:56:00;22.30;34.11
76751;SHT31;65216;51.090;-115.352;2023-08-01T05:58:27;22.28;33.95
76751;SHT31;65216;51.090;-115.352;2023-08-01T06:00:54;22.27;33.87
76751;SHT31;65216;51.090;-115.352;2023-08-01T06:03:21;22.27;33.80
76751;SHT31;65216;51.090;-115.352;2023-08-01T06:05:48;22.27;33.64
76751;SHT31;65216;51.090;-115.352;2023-08-01T06:08:15;22.26;33.67
76751;SHT31;65216;51.090;-115.352;2023-08-01T06:10:42;22.26;33.92
76751;SHT31;65216;51.090;-115.352;2023-08-01T06:13:12;22.25;33.97
76751;SHT31;65216;51.090;-115.352;2023-08-01T06:15:45;22.24;34.18
76751;SHT31;65216;51.090;-115.352;2023-08-01T06:18:12;22.23;34.01
76751;SHT31;65216;51.090;-115.352;2023-08-01T06:20:39;22.22;34.05
76751;SHT31;65216;51.090;-115.352;2023-08-01T06:23:06;22.21;33.86
76751;SHT31;65216;51.090;-115.352;2023-08-01T06:25:33;22.21;33.80
76751;SHT31;65216;51.090;-115.352;2023-08-01T06:28:00;22.19;33.77
76751;SHT31;65216;51.090;-115.352;2023-08-01T06:30:27;22.18;33.75
76751;SHT31;65216;51.090;-115.352;2023-08-01T06:32:57;22.16;33.70
76751;SHT31;65216;51.090;-115.352;2023-08-01T06:35:24;22.15;33.67
76751;SHT31;65216;51.090;-115.352;2023-08-01T06:37:50;22.14;33.56
76751;SHT31;65216;51.090;-115.352;2023-08-01T06:40:20;22.11;33.50
76751;SHT31;65216;51.090;-115.352;2023-08-01T06:42:47;22.11;33.48
76751;SHT31;65216;51.090;-115.352;2023-08-01T06:45:19;22.10;33.36
76751;SHT31;65216;51.090;-115.352;2023-08-01T06:47:48;22.10;33.35
76751;SHT31;65216;51.090;-115.352;2023-08-01T06:50:15;22.08;33.28
76751;SHT31;65216;51.090;-115.352;2023-08-01T06:52:42;22.08;33.21
76751;SHT31;65216;51.090;-115.352;2023-08-01T06:55:09;22.07;33.18
76751;SHT31;65216;51.090;-115.352;2023-08-01T06:57:36;22.05;33.10
76751;SHT31;65216;51.090;-115.352;2023-08-01T07:00:11;22.04;33.09
76751;SHT31;65216;51.090;-115.352;2023-08-01T07:02:38;22.01;33.03
76751;SHT31;65216;51.090;-115.352;2023-08-01T07:05:05;22.00;32.99
76751;SHT31;65216;51.090;-115.352;2023-08-01T07:07:32;22.00;33.00
76751;SHT31;65216;51.090;-115.352;2023-08-01T07:09:59;21.98;32.94
76751;SHT31;65216;51.090;-115.352;2023-08-01T07:12:26;21.98;32.93
76751;SHT31;65216;51.090;-115.352;2023-08-01T07:14:53;21.98;32.90
76751;SHT31;65216;51.090;-115.352;2023-08-01T07:17:19;21.97;32.89
76751;SHT31;65216;51.090;-115.352;2023-08-01T07:19:46;21.98;32.87
76751;SHT31;65216;51.090;-115.352;2023-08-01T07:22:16;21.97;32.84
76751;SHT31;65216;51.090;-115.352;2023-08-01T07:24:43;21.96;32.79
76751;SHT31;65216;51.090;-115.352;2023-08-01T07:27:13;21.94;32.78
76751;SHT31;65216;51.090;-115.352;2023-08-01T07:29:40;21.95;32.70
76751;SHT31;65216;51.090;-115.352;2023-08-01T07:32:07;21.93;32.68
76751;SHT31;65216;51.090;-115.352;2023-08-01T07:34:36;21.93;32.62
76751;SHT31;65216;51.090;-115.352;2023-08-01T07:37:03;21.93;32.60
76751;SHT31;65216;51.090;-115.352;2023-08-01T07:39:31;21.93;32.60
76751;SHT31;65216;51.090;-115.352;2023-08-01T07:42:00;21.92;32.55
76751;SHT31;65216;51.090;-115.352;2023-08-01T07:44:27;21.92;32.53
76751;SHT31;65216;51.090;-115.352;2023-08-01T07:46:54;21.92;32.57
76751;SHT31;65216;51.090;-115.352;2023-08-01T07:49:22;21.92;32.55
76751;SHT31;65216;51.090;-115.352;2023-08-01T07:51:49;21.92;32.51
76751;SHT31;65216;51.090;-115.352;2023-08-01T07:54:16;21.92;32.49
76751;SHT31;65216;51.090;-115.352;2023-08-01T07:56:43;21.90;32.47
76751;SHT31;65216;51.090;-115.352;2023-08-01T07:59:14;21.89;32.45
76751;SHT31;65216;51.090;-115.352;2023-08-01T08:04:28;21.89;32.41
76751;SHT31;65216;51.090;-115.352;2023-08-01T08:06:55;21.90;32.41
76751;SHT31;65216;51.090;-115.352;2023-08-01T08:09:25;21.89;32.40
76751;SHT31;65216;51.090;-115.352;2023-08-01T08:11:52;21.90;32.39
76751;SHT31;65216;51.090;-115.352;2023-08-01T08:14:19;21.92;32.34
76751;SHT31;65216;51.090;-115.352;2023-08-01T08:16:51;21.91;32.30
76751;SHT31;65216;51.090;-115.352;2023-08-01T08:19:18;21.91;32.26
76751;SHT31;65216;51.090;-115.352;2023-08-01T08:21:45;21.90;32.30
76751;SHT31;65216;51.090;-115.352;2023-08-01T08:24:12;21.90;32.30
76751;SHT31;65216;51.090;-115.352;2023-08-01T08:26:39;21.90;32.32
76751;SHT31;65216;51.090;-115.352;2023-08-01T08:29:06;21.89;32.32
76751;SHT31;65216;51.090;-115.352;2023-08-01T08:31:33;21.90;32.35
76751;SHT31;65216;51.090;-115.352;2023-08-01T08:34:01;21.89;32.40
76751;SHT31;65216;51.090;-115.352;2023-08-01T08:36:28;21.88;32.36
76751;SHT31;65216;51.090;-115.352;2023-08-01T08:38:54;21.88;32.38
76751;SHT31;65216;51.090;-115.352;2023-08-01T08:41:22;21.87;32.40
76751;SHT31;65216;51.090;-115.352;2023-08-01T08:43:56;21.86;32.41
76751;SHT31;65216;51.090;-115.352;2023-08-01T08:46:29;21.87;32.40
76751;SHT31;65216;51.090;-115.352;2023-08-01T08:48:57;21.86;32.40
76751;SHT31;65216;51.090;-115.352;2023-08-01T08:51:26;21.85;32.40
76751;SHT31;65216;51.090;-115.352;2023-08-01T08:53:56;21.84;32.37
76751;SHT31;65216;51.090;-115.352;2023-08-01T08:56:23;21.84;32.37
76751;SHT31;65216;51.090;-115.352;2023-08-01T08:58:50;21.83;32.37
76751;SHT31;65216;51.090;-115.352;2023-08-01T09:01:19;21.83;32.32
76751;SHT31;65216;51.090;-115.352;2023-08-01T09:03:46;21.82;32.34
76751;SHT31;65216;51.090;-115.352;2023-08-01T09:06:17;21.81;32.33
76751;SHT31;65216;51.090;-115.352;2023-08-01T09:09:05;21.81;32.31
76751;SHT31;65216;51.090;-115.352;2023-08-01T09:11:47;21.81;32.33
76751;SHT31;65216;51.090;-115.352;2023-08-01T09:14:17;21.81;32.32
76751;SHT31;65216;51.090;-115.352;2023-08-01T09:16:45;21.80;32.34
76751;SHT31;65216;51.090;-115.352;2023-08-01T09:19:16;21.81;32.30
76751;SHT31;65216;51.090;-115.352;2023-08-01T09:21:46;21.80;32.31
76751;SHT31;65216;51.090;-115.352;2023-08-01T09:24:15;21.79;32.30
76751;SHT31;65216;51.090;-115.352;2023-08-01T09:26:44;21.78;32.34
76751;SHT31;65216;51.090;-115.352;2023-08-01T09:29:15;21.77;32.38
76751;SHT31;65216;51.090;-115.352;2023-08-01T09:31:43;21.76;32.34
76751;SHT31;65216;51.090;-115.352;2023-08-01T09:34:26;21.74;32.40
76751;SHT31;65216;51.090;-115.352;2023-08-01T09:37:00;21.73;32.38
76751;SHT31;65216;51.090;-115.352;2023-08-01T09:39:30;21.71;32.40
76751;SHT31;65216;51.090;-115.352;2023-08-01T09:42:00;21.69;32.40
76751;SHT31;65216;51.090;-115.352;2023-08-01T09:44:29;21.68;32.40
76751;SHT31;65216;51.090;-115.352;2023-08-01T09:47:03;21.66;32.42
76751;SHT31;65216;51.090;-115.352;2023-08-01T09:49:32;21.64;32.43
76751;SHT31;65216;51.090;-115.352;2023-08-01T09:52:02;21.63;32.47
76751;SHT31;65216;51.090;-115.352;2023-08-01T09:54:29;21.62;32.50
76751;SHT31;65216;51.090;-115.352;2023-08-01T09:56:56;21.61;32.50
76751;SHT31;65216;51.090;-115.352;2023-08-01T09:59:25;21.59;32.56
76751;SHT31;65216;51.090;-115.352;2023-08-01T10:01:53;21.60;32.59
76751;SHT31;65216;51.090;-115.352;2023-08-01T10:04:29;21.59;32.60
76751;SHT31;65216;51.090;-115.352;2023-08-01T10:06:58;21.57;32.59
76751;SHT31;65216;51.090;-115.352;2023-08-01T10:09:31;21.55;32.60
76751;SHT31;65216;51.090;-115.352;2023-08-01T10:12:01;21.53;32.62
76751;SHT31;65216;51.090;-115.352;2023-08-01T10:14:34;21.51;32.67
76751;SHT31;65216;51.090;-115.352;2023-08-01T10:17:03;21.51;32.64
76751;SHT31;65216;51.090;-115.352;2023-08-01T10:19:31;21.49;32.65
76751;SHT31;65216;51.090;-115.352;2023-08-01T10:21:58;21.47;32.66
76751;SHT31;65216;51.090;-115.352;2023-08-01T10:24:31;21.47;32.67
76751;SHT31;65216;51.090;-115.352;2023-08-01T10:27:15;21.48;32.67
76751;SHT31;65216;51.090;-115.352;2023-08-01T10:29:55;21.46;32.67
76751;SHT31;65216;51.090;-115.352;2023-08-01T10:32:31;21.45;32.67
76751;SHT31;65216;51.090;-115.352;2023-08-01T10:35:01;21.43;32.67
76751;SHT31;65216;51.090;-115.352;2023-08-01T10:37:39;21.43;32.67
76751;SHT31;65216;51.090;-115.352;2023-08-01T10:40:12;21.42;32.64
76751;SHT31;65216;51.090;-115.352;2023-08-01T10:42:43;21.40;32.66
76751;SHT31;65216;51.090;-115.352;2023-08-01T10:45:22;21.39;32.69
76751;SHT31;65216;51.090;-115.352;2023-08-01T10:47:49;21.37;32.70
76751;SHT31;65216;51.090;-115.352;2023-08-01T10:50:17;21.37;32.70
76751;SHT31;65216;51.090;-115.352;2023-08-01T10:52:45;21.35;32.71
76751;SHT31;65216;51.090;-115.352;2023-08-01T10:55:12;21.34;32.70
76751;SHT31;65216;51.090;-115.352;2023-08-01T10:57:48;21.33;32.71
76751;SHT31;65216;51.090;-115.352;2023-08-01T11:00:16;21.33;32.71
76751;SHT31;65216;51.090;-115.352;2023-08-01T11:02:51;21.31;32.70
76751;SHT31;65216;51.090;-115.352;2023-08-01T11:05:21;21.30;32.70
76751;SHT31;65216;51.090;-115.352;2023-08-01T11:07:54;21.29;32.72
76751;SHT31;65216;51.090;-115.352;2023-08-01T11:10:27;21.28;32.74
76751;SHT31;65216;51.090;-115.352;2023-08-01T11:12:56;21.29;32.77
76751;SHT31;65216;51.090;-115.352;2023-08-01T11:15:27;21.28;32.79
76751;SHT31;65216;51.090;-115.352;2023-08-01T11:17:54;21.28;32.78
76751;SHT31;65216;51.090;-115.352;2023-08-01T11:20:26;21.27;32.78
76751;SHT31;65216;51.090;-115.352;2023-08-01T11:22:59;21.25;32.77
76751;SHT31;65216;51.090;-115.352;2023-08-01T11:25:31;21.25;32.80
76751;SHT31;65216;51.090;-115.352;2023-08-01T11:28:15;21.25;32.79
76751;SHT31;65216;51.090;-115.352;2023-08-01T11:30:43;21.24;32.80
76751;SHT31;65216;51.090;-115.352;2023-08-01T11:35:49;21.24;32.81
76751;SHT31;65216;51.090;-115.352;2023-08-01T11:38:19;21.24;32.82
76751;SHT31;65216;51.090;-115.352;2023-08-01T11:40:49;21.24;32.81
76751;SHT31;65216;51.090;-115.352;2023-08-01T11:43:18;21.24;32.81
76751;SHT31;65216;51.090;-115.352;2023-08-01T11:45:51;21.24;32.81
76751;SHT31;65216;51.090;-115.352;2023-08-01T11:48:25;21.25;32.81
76751;SHT31;65216;51.090;-115.352;2023-08-01T11:50:57;21.25;32.80
76751;SHT31;65216;51.090;-115.352;2023-08-01T11:53:25;21.25;32.80
76751;SHT31;65216;51.090;-115.352;2023-08-01T11:55:53;21.25;32.79
76751;SHT31;65216;51.090;-115.352;2023-08-01T11:58:41;21.25;32.77
76751;SHT31;65216;51.090;-115.352;2023-08-01T12:01:11;21.25;32.80
76751;SHT31;65216;51.090;-115.352;2023-08-01T12:06:20;21.24;32.77
76751;SHT31;65216;51.090;-115.352;2023-08-01T12:08:50;21.24;32.77
76751;SHT31;65216;51.090;-115.352;2023-08-01T12:11:22;21.23;32.80
76751;SHT31;65216;51.090;-115.352;2023-08-01T12:14:02;21.23;32.79
76751;SHT31;65216;51.090;-115.352;2023-08-01T12:16:30;21.23;32.80
76751;SHT31;65216;51.090;-115.352;2023-08-01T12:18:58;21.22;32.80
76751;SHT31;65216;51.090;-115.352;2023-08-01T12:21:25;21.22;32.84
76751;SHT31;65216;51.090;-115.352;2023-08-01T12:23:52;21.22;32.82
76751;SHT31;65216;51.090;-115.352;2023-08-01T12:26:19;21.21;32.84
76751;SHT31;65216;51.090;-115.352;2023-08-01T12:28:49;21.21;32.87
76751;SHT31;65216;51.090;-115.352;2023-08-01T12:31:19;21.22;32.85
76751;SHT31;65216;51.090;-115.352;2023-08-01T12:33:48;21.20;32.86
76751;SHT31;65216;51.090;-115.352;2023-08-01T12:36:15;21.20;32.90
76751;SHT31;65216;51.090;-115.352;2023-08-01T12:38:42;21.21;32.89
76751;SHT31;65216;51.090;-115.352;2023-08-01T12:41:09;21.20;32.90
76751;SHT31;65216;51.090;-115.352;2023-08-01T12:43:36;21.20;32.91
76751;SHT31;65216;51.090;-115.352;2023-08-01T12:46:03;21.18;32.93
76751;SHT31;65216;51.090;-115.352;2023-08-01T12:48:30;21.18;32.98
76751;SHT31;65216;51.090;-115.352;2023-08-01T12:50:57;21.19;32.99
76751;SHT31;65216;51.090;-115.352;2023-08-01T12:53:24;21.18;32.99
76751;SHT31;65216;51.090;-115.352;2023-08-01T12:55:52;21.18;33.00
76751;SHT31;65216;51.090;-115.352;2023-08-01T12:58:19;21.17;33.00
76751;SHT31;65216;51.090;-115.352;2023-08-01T13:00:46;21.17;33.03
76751;SHT31;65216;51.090;-115.352;2023-08-01T13:03:13;21.18;33.05
76751;SHT31;65216;51.090;-115.352;2023-08-01T13:05:40;21.20;33.06
76751;SHT31;65216;51.090;-115.352;2023-08-01T13:08:08;21.19;33.03
76751;SHT31;65216;51.090;-115.352;2023-08-01T13:10:36;21.20;33.09
76751;SHT31;65216;51.090;-115.352;2023-08-01T13:13:04;21.18;33.11
76751;SHT31;65216;51.090;-115.352;2023-08-01T13:15:32;21.18;33.12
76751;SHT31;65216;51.090;-115.352;2023-08-01T13:17:59;21.17;33.18
76751;SHT31;65216;51.090;-115.352;2023-08-01T13:20:26;21.18;33.20
76751;SHT31;65216;51.090;-115.352;2023-08-01T13:22:53;21.18;33.19
76751;SHT31;65216;51.090;-115.352;2023-08-01T13:25:20;21.18;33.23
76751;SHT31;65216;51.090;-115.352;2023-08-01T13:27:47;21.18;33.25
76751;SHT31;65216;51.090;-115.352;2023-08-01T13:30:14;21.19;33.22
76751;SHT31;65216;51.090;-115.352;2023-08-01T13:32:43;21.18;33.30
76751;SHT31;65216;51.090;-115.352;2023-08-01T13:35:11;21.18;33.35
76751;SHT31;65216;51.090;-115.352;2023-08-01T13:37:39;21.18;33.36
76751;SHT31;65216;51.090;-115.352;2023-08-01T13:40:07;21.17;33.41
76751;SHT31;65216;51.090;-115.352;2023-08-01T13:42:37;21.17;33.43
76751;SHT31;65216;51.090;-115.352;2023-08-01T13:45:04;21.17;33.49
76751;SHT31;65216;51.090;-115.352;2023-08-01T13:47:32;21.17;33.50
76751;SHT31;65216;51.090;-115.352;2023-08-01T13:49:59;21.16;33.51
76751;SHT31;65216;51.090;-115.352;2023-08-01T13:52:26;21.16;33.51
76751;SHT31;65216;51.090;-115.352;2023-08-01T13:54:53;21.15;33.51
76751;SHT31;65216;51.090;-115.352;2023-08-01T13:57:20;21.16;33.52
76751;SHT31;65216;51.090;-115.352;2023-08-01T13:59:49;21.16;33.54
76751;SHT31;65216;51.090;-115.352;2023-08-01T14:02:19;21.16;33.52
76751;SHT31;65216;51.090;-115.352;2023-08-01T14:04:46;21.16;33.51
76751;SHT31;65216;51.090;-115.352;2023-08-01T14:07:18;21.16;33.52
76751;SHT31;65216;51.090;-115.352;2023-08-01T14:09:47;21.16;33.50
76751;SHT31;65216;51.090;-115.352;2023-08-01T14:12:19;21.16;33.50
76751;SHT31;65216;51.090;-115.352;2023-08-01T14:14:47;21.16;33.50
76751;SHT31;65216;51.090;-115.352;2023-08-01T14:17:14;21.16;33.50
76751;SHT31;65216;51.090;-115.352;2023-08-01T14:19:41;21.16;33.50
76751;SHT31;65216;51.090;-115.352;2023-08-01T14:22:08;21.16;33.51
76751;SHT31;65216;51.090;-115.352;2023-08-01T14:24:35;21.16;33.52
76751;SHT31;65216;51.090;-115.352;2023-08-01T14:27:02;21.16;33.52
76751;SHT31;65216;51.090;-115.352;2023-08-01T14:29:29;21.16;33.50
76751;SHT31;65216;51.090;-115.352;2023-08-01T14:31:56;21.16;33.50
76751;SHT31;65216;51.090;-115.352;2023-08-01T14:34:23;21.16;33.51
76751;SHT31;65216;51.090;-115.352;2023-08-01T14:36:50;21.17;33.50
76751;SHT31;65216;51.090;-115.352;2023-08-01T14:39:19;21.17;33.51
76751;SHT31;65216;51.090;-115.352;2023-08-01T14:41:46;21.17;33.50
76751;SHT31;65216;51.090;-115.352;2023-08-01T14:44:13;21.17;33.50
76751;SHT31;65216;51.090;-115.352;2023-08-01T14:46:40;21.17;33.51
76751;SHT31;65216;51.090;-115.352;2023-08-01T14:49:07;21.17;33.51
76751;SHT31;65216;51.090;-115.352;2023-08-01T14:51:34;21.18;33.52
76751;SHT31;65216;51.090;-115.352;2023-08-01T14:54:01;21.18;33.54
76751;SHT31;65216;51.090;-115.352;2023-08-01T14:56:28;21.19;33.59
76751;SHT31;65216;51.090;-115.352;2023-08-01T14:58:55;21.19;33.61
76751;SHT31;65216;51.090;-115.352;2023-08-01T15:01:24;21.20;33.65
76751;SHT31;65216;51.090;-115.352;2023-08-01T15:03:54;21.21;33.66